createdAt,value
2023-05-18T00:01:44.955Z,49.10
2023-05-18T00:04:12.029Z,48.40
2023-05-18T00:06:38.575Z,48.20
2023-05-18T00:09:05.142Z,49.20
2023-05-18T00:11:31.962Z,48.20
2023-05-18T00:13:58.448Z,48.40
2023-05-18T00:16:25.206Z,48.60
2023-05-18T00:18:51.808Z,49.00
2023-05-18T00:21:18.673Z,49.10
2023-05-18T00:23:45.157Z,49.20
2023-05-18T00:26:11.961Z,49.50
2023-05-18T00:28:38.542Z,49.80
2023-05-18T00:31:05.541Z,49.50
2023-05-18T00:33:32.063Z,49.40
2023-05-18T00:35:58.854Z,49.00
2023-05-18T00:38:25.638Z,49.90
2023-05-18T00:40:52.580Z,48.90
2023-05-18T00:43:19.489Z,50.30
2023-05-18T00:45:46.078Z,50.10
2023-05-18T00:48:13.099Z,50.50
2023-05-18T00:50:40.328Z,51.00
2023-05-18T00:53:07.800Z,50.20
2023-05-18T00:55:34.619Z,51.00
2023-05-18T00:58:01.658Z,51.20
2023-05-18T01:00:28.694Z,51.60
2023-05-18T01:02:55.588Z,51.30
2023-05-18T01:05:22.820Z,51.60
2023-05-18T01:07:50.037Z,51.80
2023-05-18T01:10:18.854Z,51.30
2023-05-18T01:12:51.125Z,51.40
2023-05-18T01:15:27.419Z,51.90
2023-05-18T01:18:26.188Z,51.90
2023-05-18T01:20:56.204Z,51.50
2023-05-18T01:23:43.289Z,51.60
2023-05-18T01:26:21.022Z,51.40
2023-05-18T01:28:49.668Z,51.80
2023-05-18T01:31:17.087Z,51.80
2023-05-18T01:33:46.417Z,51.50
2023-05-18T01:36:13.588Z,51.90
2023-05-18T01:38:43.907Z,51.50
2023-05-18T01:41:39.856Z,52.30
2023-05-18T01:44:12.655Z,52.00
2023-05-18T01:47:01.817Z,52.00
2023-05-18T01:49:37.437Z,52.30
2023-05-18T01:52:11.053Z,52.40
2023-05-18T01:54:43.343Z,52.30
2023-05-18T01:57:10.636Z,52.70
2023-05-18T01:59:38.680Z,52.60
2023-05-18T02:02:05.765Z,52.60
2023-05-18T02:04:32.356Z,53.00
2023-05-18T02:06:59.311Z,52.80
2023-05-18T02:09:25.808Z,52.60
2023-05-18T02:11:52.689Z,52.90
2023-05-18T02:14:19.262Z,53.40
2023-05-18T02:16:46.257Z,53.20
2023-05-18T02:19:14.046Z,53.30
2023-05-18T02:21:40.651Z,53.50
2023-05-18T02:24:08.107Z,54.00
2023-05-18T02:26:34.637Z,53.50
2023-05-18T02:29:01.512Z,53.00
2023-05-18T02:31:28.082Z,53.40
2023-05-18T02:33:55.104Z,53.50
2023-05-18T02:36:21.601Z,53.40
2023-05-18T02:38:48.474Z,53.90
2023-05-18T02:41:15.415Z,54.10
2023-05-18T02:43:41.900Z,54.00
2023-05-18T02:46:08.763Z,53.90
2023-05-18T02:48:35.349Z,54.20
2023-05-18T02:51:01.921Z,55.00
2023-05-18T02:53:28.814Z,54.10
2023-05-18T02:55:56.386Z,54.00
2023-05-18T02:58:23.106Z,54.00
2023-05-18T03:00:50.153Z,54.10
2023-05-18T03:03:16.748Z,54.10
2023-05-18T03:05:43.634Z,54.40
2023-05-18T03:08:10.515Z,54.20
2023-05-18T03:10:37.564Z,54.00
2023-05-18T03:13:04.507Z,54.00
2023-05-18T03:15:31.665Z,54.70
2023-05-18T03:17:58.498Z,54.20
2023-05-18T03:20:26.159Z,54.30
2023-05-18T03:22:52.643Z,54.20
2023-05-18T03:25:19.474Z,54.10
2023-05-18T03:27:46.363Z,54.40
2023-05-18T03:30:13.388Z,54.00
2023-05-18T03:32:39.883Z,54.10
2023-05-18T03:35:06.882Z,54.00
2023-05-18T03:37:33.779Z,54.00
2023-05-18T03:40:12.509Z,53.90
2023-05-18T03:42:40.544Z,53.80
2023-05-18T03:45:08.363Z,54.20
2023-05-18T03:47:34.969Z,54.30
2023-05-18T03:50:02.648Z,53.80
2023-05-18T03:52:29.269Z,53.50
2023-05-18T03:54:56.527Z,53.00
2023-05-18T03:57:23.071Z,52.70
2023-05-18T03:59:49.929Z,53.40
2023-05-18T04:02:16.529Z,53.00
2023-05-18T04:04:43.112Z,52.50
2023-05-18T04:07:09.921Z,53.10
2023-05-18T04:09:36.525Z,53.00
2023-05-18T04:12:03.387Z,52.60
2023-05-18T04:14:30.077Z,53.00
2023-05-18T04:16:57.070Z,52.60
2023-05-18T04:19:23.855Z,52.70
2023-05-18T04:21:50.733Z,52.70
2023-05-18T04:24:17.220Z,52.60
2023-05-18T04:26:43.706Z,51.30
2023-05-18T04:29:10.939Z,51.20
2023-05-18T04:31:37.799Z,50.80
2023-05-18T04:34:04.773Z,50.70
2023-05-18T04:36:31.444Z,50.20
2023-05-18T04:38:58.353Z,49.70
2023-05-18T04:41:25.886Z,49.30
2023-05-18T04:43:53.289Z,49.30
2023-05-18T04:46:20.335Z,49.60
2023-05-18T04:48:46.829Z,48.80
2023-05-18T04:51:13.689Z,48.90
2023-05-18T04:53:40.587Z,48.70
2023-05-18T04:56:07.668Z,48.40
2023-05-18T04:58:35.243Z,48.10
2023-05-18T05:01:01.800Z,47.60
2023-05-18T05:03:28.817Z,48.10
2023-05-18T05:05:55.598Z,46.90
2023-05-18T05:08:22.494Z,46.40
2023-05-18T05:10:49.002Z,45.50
2023-05-18T05:13:15.915Z,44.00
2023-05-18T05:15:42.520Z,41.70
2023-05-18T05:18:09.512Z,39.30
2023-05-18T05:20:36.025Z,39.30
2023-05-18T05:23:02.561Z,38.40
2023-05-18T05:25:29.519Z,37.10
2023-05-18T05:27:56.151Z,36.30
2023-05-18T05:30:22.980Z,35.90
2023-05-18T05:32:49.591Z,35.70
2023-05-18T05:35:16.316Z,33.50
2023-05-18T05:37:42.973Z,33.70
2023-05-18T05:40:10.113Z,33.70
2023-05-18T05:42:37.062Z,32.30
2023-05-18T05:45:03.778Z,31.20
2023-05-18T05:47:30.393Z,30.40
2023-05-18T05:49:56.921Z,28.50
2023-05-18T05:52:23.408Z,28.00
2023-05-18T05:54:49.888Z,27.60
2023-05-18T05:57:16.373Z,28.20
2023-05-18T05:59:43.492Z,28.30
2023-05-18T06:02:10.015Z,27.40
2023-05-18T06:04:36.663Z,27.50
2023-05-18T06:07:03.736Z,26.80
2023-05-18T06:09:30.295Z,26.50
2023-05-18T06:11:57.021Z,25.80
2023-05-18T06:14:23.561Z,26.30
2023-05-18T06:16:50.114Z,26.70
2023-05-18T06:19:16.701Z,26.30
2023-05-18T06:21:43.526Z,26.80
2023-05-18T06:24:10.107Z,26.80
2023-05-18T06:26:36.603Z,26.40
2023-05-18T06:29:03.510Z,26.10
2023-05-18T06:31:30.760Z,25.00
2023-05-18T06:33:57.394Z,25.10
2023-05-18T06:36:24.342Z,25.50
2023-05-18T06:38:51.226Z,25.00
2023-05-18T06:41:17.850Z,24.90
2023-05-18T06:43:44.747Z,24.30
2023-05-18T06:46:19.932Z,25.00
2023-05-18T06:48:46.705Z,24.10
2023-05-18T06:51:13.382Z,24.20
2023-05-18T06:53:40.233Z,23.50
2023-05-18T06:56:06.965Z,23.00
2023-05-18T06:58:33.854Z,23.10
2023-05-18T07:01:01.234Z,22.90
2023-05-18T07:03:28.363Z,23.20
2023-05-18T07:05:54.988Z,22.40
2023-05-18T07:08:22.958Z,22.40
2023-05-18T07:10:49.464Z,22.70
2023-05-18T07:13:15.945Z,22.40
2023-05-18T07:15:42.881Z,22.50
2023-05-18T07:18:09.462Z,22.30
2023-05-18T07:20:36.159Z,22.30
2023-05-18T07:23:02.885Z,22.50
2023-05-18T07:25:29.762Z,22.40
2023-05-18T07:27:56.488Z,21.40
2023-05-18T07:30:23.403Z,20.20
2023-05-18T07:32:50.146Z,21.30
2023-05-18T07:35:16.689Z,20.90
2023-05-18T07:37:43.654Z,21.60
2023-05-18T07:40:11.194Z,20.80
2023-05-18T07:42:38.788Z,20.80
2023-05-18T07:45:06.340Z,21.10
2023-05-18T07:47:33.049Z,19.90
2023-05-18T07:49:59.848Z,20.40
2023-05-18T07:52:26.674Z,19.80
2023-05-18T07:54:54.896Z,19.80
2023-05-18T07:57:21.865Z,19.80
2023-05-18T07:59:48.377Z,19.40
2023-05-18T08:02:15.342Z,18.80
2023-05-18T08:04:41.973Z,19.00
2023-05-18T08:07:08.483Z,18.30
2023-05-18T08:09:35.030Z,18.60
2023-05-18T08:12:01.996Z,18.20
2023-05-18T08:14:28.481Z,18.20
2023-05-18T08:16:54.990Z,18.40
2023-05-18T08:19:22.109Z,18.20
2023-05-18T08:21:48.627Z,18.00
2023-05-18T08:24:15.159Z,18.00
2023-05-18T08:26:41.694Z,18.90
2023-05-18T08:29:08.209Z,19.00
2023-05-18T08:31:35.806Z,20.10
2023-05-18T08:34:03.537Z,18.60
2023-05-18T08:36:30.710Z,19.00
2023-05-18T08:38:57.261Z,19.00
2023-05-18T08:41:29.890Z,20.80
2023-05-18T08:44:03.603Z,19.50
2023-05-18T08:46:36.102Z,22.40
2023-05-18T08:49:05.000Z,22.40
2023-05-18T08:51:35.526Z,21.30
2023-05-18T08:54:03.607Z,22.10
2023-05-18T08:56:32.062Z,22.00
2023-05-18T08:58:59.083Z,21.00
2023-05-18T09:01:26.765Z,20.90
2023-05-18T09:03:53.573Z,20.80
2023-05-18T09:06:24.215Z,20.20
2023-05-18T09:08:53.508Z,20.30
2023-05-18T09:11:21.700Z,20.30
2023-05-18T09:13:49.677Z,21.10
2023-05-18T09:16:16.301Z,19.90
2023-05-18T09:18:42.884Z,20.00
2023-05-18T09:21:09.843Z,19.60
2023-05-18T09:23:40.110Z,20.00
2023-05-18T09:26:06.812Z,19.40
2023-05-18T09:28:38.476Z,19.10
2023-05-18T09:31:07.358Z,18.20
2023-05-18T09:33:36.510Z,19.50
2023-05-18T09:36:07.472Z,19.00
2023-05-18T09:38:38.536Z,18.70
2023-05-18T09:41:11.063Z,19.10
2023-05-18T09:43:37.850Z,19.80
2023-05-18T09:46:08.345Z,19.40
2023-05-18T09:48:45.664Z,20.00
2023-05-18T09:51:13.512Z,18.60
2023-05-18T09:53:40.622Z,18.10
2023-05-18T09:56:08.120Z,18.30
2023-05-18T09:58:35.178Z,18.20
2023-05-18T10:01:02.579Z,18.50
2023-05-18T10:03:34.560Z,16.80
2023-05-18T10:06:08.894Z,16.70
2023-05-18T10:08:36.798Z,16.40
2023-05-18T10:11:03.957Z,16.80
2023-05-18T10:13:32.347Z,16.50
2023-05-18T10:16:01.511Z,17.00
2023-05-18T10:18:30.355Z,17.00
2023-05-18T10:21:00.321Z,15.90
2023-05-18T10:23:30.293Z,15.60
2023-05-18T10:25:57.948Z,15.40
2023-05-18T10:28:32.703Z,15.80
2023-05-18T10:31:00.567Z,17.20
2023-05-18T10:33:29.878Z,16.10
2023-05-18T10:35:57.837Z,15.30
2023-05-18T10:38:28.132Z,16.50
2023-05-18T10:40:59.517Z,16.40
2023-05-18T10:43:27.626Z,16.80
2023-05-18T10:46:01.911Z,18.50
2023-05-18T10:48:29.477Z,18.70
2023-05-18T10:50:58.291Z,16.90
2023-05-18T10:53:27.403Z,18.00
2023-05-18T10:55:54.966Z,18.10
2023-05-18T10:58:27.291Z,20.20
2023-05-18T11:01:02.977Z,19.80
2023-05-18T11:03:33.266Z,17.80
2023-05-18T11:06:04.424Z,19.80
2023-05-18T11:08:31.313Z,21.80
2023-05-18T11:11:02.091Z,19.90
2023-05-18T11:13:32.684Z,21.30
2023-05-18T11:15:59.694Z,22.20
2023-05-18T11:18:45.788Z,22.10
2023-05-18T11:21:24.759Z,20.90
2023-05-18T11:24:22.026Z,21.50
2023-05-18T11:26:54.221Z,20.80
2023-05-18T11:29:32.355Z,22.70
2023-05-18T11:31:59.255Z,23.10
2023-05-18T11:34:44.238Z,22.30
2023-05-18T11:37:12.266Z,23.60
2023-05-18T11:39:47.928Z,22.30
2023-05-18T11:42:18.734Z,24.70
2023-05-18T11:44:52.379Z,23.70
2023-05-18T11:47:19.345Z,21.60
2023-05-18T11:49:47.392Z,24.30
2023-05-18T11:52:22.331Z,25.70
2023-05-18T11:54:52.950Z,22.40
2023-05-18T11:57:24.038Z,23.60
2023-05-18T11:59:58.094Z,26.10
2023-05-18T12:02:31.855Z,27.50
2023-05-18T12:05:00.080Z,27.10
2023-05-18T12:07:28.712Z,23.60
2023-05-18T12:10:03.205Z,27.80
2023-05-18T12:12:30.009Z,26.50
2023-05-18T12:15:01.991Z,26.70
2023-05-18T12:17:49.484Z,26.50
2023-05-18T12:20:23.072Z,26.70
2023-05-18T12:22:52.165Z,24.60
2023-05-18T12:25:20.048Z,24.50
2023-05-18T12:27:47.471Z,23.80
2023-05-18T12:30:19.071Z,23.70
2023-05-18T12:32:53.586Z,26.40
2023-05-18T12:35:24.101Z,26.60
2023-05-18T12:37:50.606Z,25.90
2023-05-18T12:40:19.547Z,27.50
2023-05-18T12:42:57.945Z,26.50
2023-05-18T12:45:31.226Z,27.40
2023-05-18T12:48:05.137Z,24.80
2023-05-18T12:50:32.016Z,27.40
2023-05-18T12:52:58.606Z,24.80
2023-05-18T12:55:25.406Z,24.80
2023-05-18T12:58:02.387Z,23.70
2023-05-18T13:00:36.691Z,23.80
2023-05-18T13:03:07.311Z,23.50
2023-05-18T13:05:34.332Z,25.20
2023-05-18T13:08:00.912Z,25.00
2023-05-18T13:10:31.009Z,24.60
2023-05-18T13:12:58.001Z,27.80
2023-05-18T13:15:24.554Z,24.60
2023-05-18T13:18:01.831Z,26.60
2023-05-18T13:20:36.700Z,24.10
2023-05-18T13:23:07.092Z,23.10
2023-05-18T13:25:34.127Z,26.40
2023-05-18T13:28:02.520Z,27.10
2023-05-18T13:30:29.972Z,27.00
2023-05-18T13:32:57.528Z,25.70
2023-05-18T13:35:24.171Z,26.30
2023-05-18T13:37:50.818Z,26.40
2023-05-18T13:40:18.296Z,24.80
2023-05-18T13:42:46.077Z,25.00
2023-05-18T13:45:15.887Z,24.30
2023-05-18T13:47:43.298Z,24.70
2023-05-18T13:50:10.121Z,25.60
2023-05-18T13:52:37.647Z,25.40
2023-05-18T13:55:06.862Z,25.80
2023-05-18T13:57:33.827Z,26.20
2023-05-18T14:00:00.583Z,25.40
2023-05-18T14:02:27.221Z,27.20
2023-05-18T14:04:53.789Z,25.60
2023-05-18T14:07:20.462Z,24.40
2023-05-18T14:09:46.942Z,26.00
2023-05-18T14:12:13.740Z,24.50
2023-05-18T14:14:40.219Z,25.00
2023-05-18T14:17:09.869Z,24.90
2023-05-18T14:19:37.698Z,25.20
2023-05-18T14:22:04.662Z,27.50
2023-05-18T14:24:31.185Z,27.00
2023-05-18T14:26:58.130Z,25.60
2023-05-18T14:29:24.671Z,25.80
2023-05-18T14:31:51.413Z,25.50
2023-05-18T14:34:18.358Z,25.20
2023-05-18T14:36:44.862Z,26.50
2023-05-18T14:39:11.746Z,25.10
2023-05-18T14:41:38.221Z,23.70
2023-05-18T14:44:04.899Z,24.30
2023-05-18T14:46:31.531Z,25.80
2023-05-18T14:48:58.451Z,26.80
2023-05-18T14:51:24.930Z,25.00
2023-05-18T14:53:51.672Z,27.60
2023-05-18T14:56:18.220Z,26.90
2023-05-18T14:58:44.721Z,27.50
2023-05-18T15:01:11.609Z,24.50
2023-05-18T15:03:38.308Z,24.30
2023-05-18T15:06:05.024Z,26.80
2023-05-18T15:08:31.637Z,26.10
2023-05-18T15:10:58.190Z,26.30
2023-05-18T15:13:24.848Z,25.70
2023-05-18T15:15:51.803Z,24.90
2023-05-18T15:18:18.806Z,27.50
2023-05-18T15:20:45.458Z,25.40
2023-05-18T15:23:12.799Z,26.70
2023-05-18T15:25:40.051Z,25.00
2023-05-18T15:28:06.676Z,26.20
2023-05-18T15:30:33.661Z,26.00
2023-05-18T15:33:01.232Z,27.00
2023-05-18T15:35:28.457Z,24.70
2023-05-18T15:37:55.554Z,23.70
2023-05-18T15:40:22.265Z,24.70
2023-05-18T15:42:48.751Z,26.20
2023-05-18T15:45:15.298Z,25.80
2023-05-18T15:47:41.884Z,27.50
2023-05-18T15:50:08.926Z,27.20
2023-05-18T15:52:35.424Z,24.40
2023-05-18T15:55:01.942Z,24.60
2023-05-18T15:57:28.442Z,24.00
2023-05-18T15:59:55.075Z,25.80
2023-05-18T16:02:23.237Z,24.70
2023-05-18T16:04:51.734Z,26.10
2023-05-18T16:07:18.477Z,25.20
2023-05-18T16:09:44.979Z,26.00
2023-05-18T16:12:11.889Z,25.20
2023-05-18T16:14:38.442Z,26.60
2023-05-18T16:17:05.333Z,26.00
2023-05-18T16:19:31.904Z,26.00
2023-05-18T16:21:58.451Z,25.30
2023-05-18T16:24:25.067Z,26.20
2023-05-18T16:26:51.564Z,26.70
2023-05-18T16:29:18.299Z,25.00
2023-05-18T16:31:44.912Z,25.80
2023-05-18T16:34:11.742Z,26.00
2023-05-18T16:36:38.311Z,25.50
2023-05-18T16:39:04.818Z,24.60
2023-05-18T16:41:31.859Z,25.80
2023-05-18T16:43:58.346Z,28.10
2023-05-18T16:46:25.254Z,26.30
2023-05-18T16:48:51.929Z,26.80
2023-05-18T16:51:18.419Z,25.00
2023-05-18T16:53:45.288Z,26.50
2023-05-18T16:56:11.883Z,25.10
2023-05-18T16:58:38.412Z,27.20
2023-05-18T17:01:15.868Z,26.00
2023-05-18T17:03:51.797Z,26.30
2023-05-18T17:06:19.206Z,26.20
2023-05-18T17:08:45.750Z,26.00
2023-05-18T17:11:12.392Z,26.30
2023-05-18T17:13:38.891Z,25.50
2023-05-18T17:16:06.288Z,25.30
2023-05-18T17:18:32.852Z,27.10
2023-05-18T17:20:59.532Z,26.20
2023-05-18T17:23:26.034Z,26.90
2023-05-18T17:26:00.999Z,25.80
2023-05-18T17:28:32.450Z,26.10
2023-05-18T17:30:58.933Z,26.60
2023-05-18T17:33:25.440Z,25.40
2023-05-18T17:35:51.973Z,26.70
2023-05-18T17:38:18.863Z,26.70
2023-05-18T17:40:45.361Z,27.00
2023-05-18T17:43:12.246Z,26.10
2023-05-18T17:45:39.120Z,26.50
2023-05-18T17:48:05.906Z,27.40
2023-05-18T17:50:32.619Z,27.30
2023-05-18T17:52:59.298Z,26.60
2023-05-18T17:55:25.919Z,27.30
2023-05-18T17:57:52.911Z,28.00
2023-05-18T18:00:19.707Z,28.00
2023-05-18T18:02:46.646Z,28.70
2023-05-18T18:05:13.322Z,27.70
2023-05-18T18:07:40.037Z,27.20
2023-05-18T18:10:07.783Z,28.20
2023-05-18T18:12:34.306Z,27.90
2023-05-18T18:15:01.177Z,27.90
2023-05-18T18:17:27.704Z,28.40
2023-05-18T18:19:54.230Z,28.60
2023-05-18T18:22:20.748Z,28.60
2023-05-18T18:24:47.244Z,29.30
2023-05-18T18:27:13.731Z,29.50
2023-05-18T18:29:40.590Z,30.00
2023-05-18T18:32:07.277Z,30.20
2023-05-18T18:34:33.805Z,31.10
2023-05-18T18:37:00.718Z,30.40
2023-05-18T18:39:27.263Z,30.80
2023-05-18T18:41:53.882Z,30.00
2023-05-18T18:44:20.363Z,30.50
2023-05-18T18:46:47.298Z,30.40
2023-05-18T18:49:14.534Z,30.40
2023-05-18T18:51:41.123Z,30.30
2023-05-18T18:54:07.668Z,30.60
2023-05-18T18:56:34.540Z,30.50
2023-05-18T18:59:01.225Z,31.50
2023-05-18T19:01:27.778Z,31.80
2023-05-18T19:03:54.332Z,32.60
2023-05-18T19:06:20.894Z,33.10
2023-05-18T19:08:47.526Z,32.20
2023-05-18T19:11:14.050Z,33.10
2023-05-18T19:13:40.853Z,33.00
2023-05-18T19:16:10.277Z,33.80
2023-05-18T19:18:37.065Z,34.60
2023-05-18T19:21:03.617Z,34.50
2023-05-18T19:23:30.124Z,34.40
2023-05-18T19:25:56.621Z,34.90
2023-05-18T19:28:23.127Z,35.30
2023-05-18T19:30:50.004Z,35.80
2023-05-18T19:33:16.541Z,35.50
2023-05-18T19:35:43.068Z,36.00
2023-05-18T19:38:09.579Z,36.00
2023-05-18T19:40:36.090Z,36.30
2023-05-18T19:43:02.601Z,35.80
2023-05-18T19:45:29.269Z,36.30
2023-05-18T19:47:56.491Z,36.70
2023-05-18T19:50:23.536Z,37.30
2023-05-18T19:52:50.022Z,37.60
2023-05-18T19:55:17.268Z,37.70
2023-05-18T19:57:44.074Z,37.30
2023-05-18T20:00:10.895Z,38.10
2023-05-18T20:02:37.495Z,38.60
2023-05-18T20:05:04.276Z,39.00
2023-05-18T20:07:32.006Z,38.80
2023-05-18T20:09:58.932Z,39.10
2023-05-18T20:12:26.147Z,39.00
2023-05-18T20:14:52.654Z,39.30
2023-05-18T20:17:19.558Z,38.70
2023-05-18T20:19:46.081Z,39.30
2023-05-18T20:22:12.584Z,39.00
2023-05-18T20:24:39.073Z,39.00
2023-05-18T20:27:06.112Z,38.90
2023-05-18T20:29:32.730Z,39.20
2023-05-18T20:31:59.252Z,38.90
2023-05-18T20:34:26.172Z,39.10
2023-05-18T20:36:52.671Z,39.60
2023-05-18T20:39:19.629Z,39.10
2023-05-18T20:41:46.128Z,39.30
2023-05-18T20:44:12.619Z,38.80
2023-05-18T20:46:39.311Z,39.30
2023-05-18T20:49:06.182Z,39.40
2023-05-18T20:51:32.702Z,38.50
2023-05-18T20:53:59.397Z,39.30
2023-05-18T20:56:26.097Z,39.20
2023-05-18T20:58:53.680Z,39.70
2023-05-18T21:01:20.240Z,39.90
2023-05-18T21:03:47.410Z,39.80
2023-05-18T21:06:14.497Z,39.90
2023-05-18T21:08:41.118Z,41.20
2023-05-18T21:11:07.675Z,40.00
2023-05-18T21:13:34.540Z,40.60
2023-05-18T21:16:01.641Z,40.70
2023-05-18T21:18:28.177Z,40.40
2023-05-18T21:20:54.687Z,40.60
2023-05-18T21:26:06.017Z,40.40
2023-05-18T21:28:32.945Z,40.80
2023-05-18T21:30:59.847Z,40.80
2023-05-18T21:33:26.758Z,40.40
2023-05-18T21:35:53.636Z,40.50
2023-05-18T21:38:20.134Z,41.40
2023-05-18T21:40:46.942Z,40.80
2023-05-18T21:43:13.427Z,41.90
2023-05-18T21:45:40.678Z,41.30
2023-05-18T21:48:07.512Z,41.70
2023-05-18T21:50:35.348Z,41.70
2023-05-18T21:53:02.546Z,41.70
2023-05-18T21:55:30.869Z,41.60
2023-05-18T21:57:57.361Z,42.10
2023-05-18T22:00:23.894Z,42.60
2023-05-18T22:02:50.807Z,43.00
2023-05-18T22:05:18.828Z,42.60
2023-05-18T22:07:46.161Z,42.50
2023-05-18T22:10:12.736Z,43.20
2023-05-18T22:12:39.701Z,43.50
2023-05-18T22:15:06.967Z,43.40
2023-05-18T22:17:33.683Z,43.60
2023-05-18T22:20:00.263Z,43.40
2023-05-18T22:22:30.563Z,43.10
2023-05-18T22:24:57.896Z,43.80
2023-05-18T22:27:24.406Z,43.30
2023-05-18T22:29:51.243Z,43.70
2023-05-18T22:32:17.798Z,43.10
2023-05-18T22:34:44.721Z,43.90
2023-05-18T22:37:11.237Z,44.00
2023-05-18T22:39:38.187Z,44.00
2023-05-18T22:42:05.156Z,44.60
2023-05-18T22:44:31.633Z,44.90
2023-05-18T22:46:58.565Z,45.20
2023-05-18T22:49:25.038Z,45.00
2023-05-18T22:51:51.539Z,45.30
2023-05-18T22:54:18.044Z,45.20
2023-05-18T22:56:44.942Z,45.40
2023-05-18T22:59:11.434Z,45.40
2023-05-18T23:01:38.032Z,45.30
2023-05-18T23:04:05.075Z,45.30
2023-05-18T23:06:31.744Z,45.40
2023-05-18T23:08:58.609Z,45.20
2023-05-18T23:11:25.102Z,45.90
2023-05-18T23:13:51.980Z,46.20
2023-05-18T23:16:18.564Z,46.30
2023-05-18T23:18:45.566Z,46.40
2023-05-18T23:21:12.086Z,46.50
2023-05-18T23:23:38.563Z,45.80
2023-05-18T23:26:05.458Z,46.20
2023-05-18T23:28:31.953Z,46.40
2023-05-18T23:30:58.723Z,47.40
2023-05-18T23:33:25.494Z,47.30
2023-05-18T23:35:53.258Z,48.80
2023-05-18T23:38:21.885Z,49.00
2023-05-18T23:40:51.603Z,48.60
2023-05-18T23:43:18.306Z,48.80
2023-05-18T23:45:45.446Z,48.70
2023-05-18T23:48:12.464Z,48.40
2023-05-18T23:50:42.228Z,48.30
2023-05-18T23:53:12.067Z,48.60
2023-05-18T23:55:40.616Z,48.40
2023-05-18T23:58:07.641Z,48.10
